createdAt,value
2023-04-18T00:00:29.278Z,10.18
2023-04-18T00:01:29.259Z,10.15
2023-04-18T00:02:29.288Z,10.18
2023-04-18T00:03:29.394Z,10.18
2023-04-18T00:04:29.293Z,10.18
2023-04-18T00:05:29.291Z,10.14
2023-04-18T00:06:29.188Z,10.17
2023-04-18T00:07:29.207Z,10.10
2023-04-18T00:08:29.166Z,10.09
2023-04-18T00:09:29.233Z,10.07
2023-04-18T00:10:29.149Z,10.07
2023-04-18T00:11:29.127Z,10.09
2023-04-18T00:12:29.123Z,10.07
2023-04-18T00:13:29.118Z,10.07
2023-04-18T00:14:29.118Z,10.00
2023-04-18T00:15:29.101Z,10.01
2023-04-18T00:16:29.083Z,10.03
2023-04-18T00:17:29.091Z,10.03
2023-04-18T00:18:29.108Z,9.99
2023-04-18T00:19:29.021Z,9.93
2023-04-18T00:20:28.999Z,9.93
2023-04-18T00:21:29.022Z,9.88
2023-04-18T00:22:28.998Z,9.81
2023-04-18T00:23:29.020Z,9.76
2023-04-18T00:24:28.980Z,9.76
2023-04-18T00:25:29.103Z,9.73
2023-04-18T00:26:28.920Z,9.70
2023-04-18T00:27:28.980Z,9.66
2023-04-18T00:28:28.936Z,9.64
2023-04-18T00:29:28.875Z,9.63
2023-04-18T00:30:28.872Z,9.58
2023-04-18T00:31:28.929Z,9.61
2023-04-18T00:32:28.867Z,9.58
2023-04-18T00:33:28.861Z,9.56
2023-04-18T00:34:28.818Z,9.56
2023-04-18T00:35:28.808Z,9.56
2023-04-18T00:36:28.790Z,9.53
2023-04-18T00:37:28.782Z,9.53
2023-04-18T00:38:28.783Z,9.53
2023-04-18T00:39:28.753Z,9.52
2023-04-18T00:40:28.740Z,9.52
2023-04-18T00:41:28.730Z,9.46
2023-04-18T00:42:28.724Z,9.49
2023-04-18T00:43:28.721Z,9.49
2023-04-18T00:44:28.716Z,9.50
2023-04-18T00:45:28.682Z,9.46
2023-04-18T00:46:28.691Z,9.46
2023-04-18T00:47:28.687Z,9.49
2023-04-18T00:48:28.629Z,9.46
2023-04-18T00:49:28.647Z,9.45
2023-04-18T00:50:28.609Z,9.43
2023-04-18T00:51:28.600Z,9.43
2023-04-18T00:52:28.577Z,9.46
2023-04-18T00:53:28.589Z,9.46
2023-04-18T00:54:28.555Z,9.43
2023-04-18T00:55:28.555Z,9.42
2023-04-18T00:56:28.531Z,9.42
2023-04-18T00:57:28.511Z,9.42
2023-04-18T00:58:28.510Z,9.40
2023-04-18T00:59:28.481Z,9.38
2023-04-18T01:00:28.487Z,9.35
2023-04-18T01:01:28.531Z,9.34
2023-04-18T01:02:28.491Z,9.31
2023-04-18T01:03:28.590Z,9.35
2023-04-18T01:04:28.511Z,9.27
2023-04-18T01:05:28.420Z,9.25
2023-04-18T01:06:28.409Z,9.24
2023-04-18T01:07:28.384Z,9.25
2023-04-18T01:08:28.402Z,9.25
2023-04-18T01:09:28.394Z,9.23
2023-04-18T01:10:28.344Z,9.18
2023-04-18T01:11:28.336Z,9.12
2023-04-18T01:12:28.311Z,9.15
2023-04-18T01:13:28.305Z,9.12
2023-04-18T01:15:38.136Z,9.10
2023-04-18T01:16:38.075Z,9.10
2023-04-18T01:17:38.105Z,9.06
2023-04-18T01:18:38.048Z,9.09
2023-04-18T01:19:38.049Z,9.06
2023-04-18T01:20:38.013Z,9.09
2023-04-18T01:21:38.012Z,9.05
2023-04-18T01:22:38.015Z,9.02
2023-04-18T01:23:38.010Z,9.02
2023-04-18T01:24:37.989Z,8.97
2023-04-18T01:25:37.962Z,8.97
2023-04-18T01:26:37.934Z,8.91
2023-04-18T01:27:37.926Z,8.90
2023-04-18T01:28:37.944Z,8.88
2023-04-18T01:29:39.004Z,8.83
2023-04-18T01:30:37.896Z,8.84
2023-04-18T01:31:37.906Z,8.83
2023-04-18T01:32:37.898Z,8.83
2023-04-18T01:33:37.848Z,8.81
2023-04-18T01:34:37.844Z,8.81
2023-04-18T01:35:37.817Z,8.79
2023-04-18T01:36:37.796Z,8.78
2023-04-18T01:37:37.829Z,8.81
2023-04-18T01:38:37.778Z,8.78
2023-04-18T01:39:37.806Z,8.76
2023-04-18T01:40:37.754Z,8.73
2023-04-18T01:41:37.768Z,8.71
2023-04-18T01:42:37.711Z,8.69
2023-04-18T01:43:37.728Z,8.65
2023-04-18T01:44:37.726Z,8.58
2023-04-18T01:45:37.698Z,8.55
2023-04-18T01:46:37.715Z,8.58
2023-04-18T01:47:37.684Z,8.57
2023-04-18T01:48:37.653Z,8.58
2023-04-18T01:49:37.759Z,8.58
2023-04-18T01:50:37.638Z,8.57
2023-04-18T01:51:37.597Z,8.57
2023-04-18T01:52:37.594Z,8.54
2023-04-18T01:53:37.601Z,8.55
2023-04-18T01:54:37.559Z,8.55
2023-04-18T01:55:37.552Z,8.53
2023-04-18T01:56:37.538Z,8.54
2023-04-18T01:57:37.515Z,8.53
2023-04-18T01:58:37.562Z,8.55
2023-04-18T01:59:37.558Z,8.53
2023-04-18T02:00:37.499Z,8.51
2023-04-18T02:01:37.470Z,8.51
2023-04-18T02:02:37.563Z,8.50
2023-04-18T02:03:37.632Z,8.47
2023-04-18T02:04:37.452Z,8.50
2023-04-18T02:05:37.422Z,8.53
2023-04-18T02:06:37.399Z,8.50
2023-04-18T02:07:37.382Z,8.50
2023-04-18T02:08:37.388Z,8.53
2023-04-18T02:09:37.377Z,8.47
2023-04-18T02:10:37.375Z,8.45
2023-04-18T02:11:37.331Z,8.37
2023-04-18T02:12:37.337Z,8.36
2023-04-18T02:13:37.349Z,8.30
2023-04-18T02:14:37.310Z,8.30
2023-04-18T02:15:37.281Z,8.29
2023-04-18T02:16:37.322Z,8.30
2023-04-18T02:17:37.258Z,8.29
2023-04-18T02:18:37.259Z,8.30
2023-04-18T02:19:37.225Z,8.32
2023-04-18T02:20:37.242Z,8.29
2023-04-18T02:21:37.195Z,8.29
2023-04-18T02:22:37.184Z,8.30
2023-04-18T02:23:37.179Z,8.32
2023-04-18T02:24:37.170Z,8.32
2023-04-18T02:25:37.175Z,8.28
2023-04-18T02:26:37.133Z,8.25
2023-04-18T02:27:37.112Z,8.22
2023-04-18T02:28:37.136Z,8.21
2023-04-18T02:29:37.149Z,8.20
2023-04-18T02:30:37.101Z,8.20
2023-04-18T02:31:37.141Z,8.21
2023-04-18T02:32:37.093Z,8.17
2023-04-18T02:33:37.043Z,8.18
2023-04-18T02:34:37.065Z,8.15
2023-04-18T02:35:37.002Z,8.15
2023-04-18T02:36:37.022Z,8.17
2023-04-18T02:37:36.987Z,8.20
2023-04-18T02:38:36.983Z,8.18
2023-04-18T02:39:36.974Z,8.14
2023-04-18T02:40:36.949Z,8.12
2023-04-18T02:41:36.930Z,8.10
2023-04-18T02:42:36.914Z,8.07
2023-04-18T02:43:36.903Z,8.10
2023-04-18T02:44:36.907Z,8.04
2023-04-18T02:45:36.892Z,8.08
2023-04-18T02:46:36.866Z,8.08
2023-04-18T02:47:43.807Z,8.10
2023-04-18T02:48:37.851Z,8.07
2023-04-18T02:49:36.863Z,8.04
2023-04-18T02:50:36.823Z,8.02
2023-04-18T02:51:36.805Z,8.00
2023-04-18T02:52:36.796Z,8.02
2023-04-18T02:53:36.769Z,7.99
2023-04-18T02:54:36.772Z,8.02
2023-04-18T02:55:36.734Z,7.97
2023-04-18T02:56:36.737Z,8.00
2023-04-18T02:57:36.706Z,7.97
2023-04-18T02:58:36.692Z,7.94
2023-04-18T02:59:36.705Z,7.92
2023-04-18T03:00:36.688Z,7.90
2023-04-18T03:01:36.712Z,7.89
2023-04-18T03:02:36.703Z,7.89
2023-04-18T03:03:36.676Z,7.87
2023-04-18T03:04:36.721Z,7.89
2023-04-18T03:05:36.598Z,7.90
2023-04-18T03:06:36.602Z,7.90
2023-04-18T03:07:36.577Z,7.89
2023-04-18T03:08:36.566Z,7.85
2023-04-18T03:09:36.735Z,7.87
2023-04-18T03:10:36.622Z,7.87
2023-04-18T03:11:36.558Z,7.84
2023-04-18T03:12:36.518Z,7.82
2023-04-18T03:13:36.511Z,7.81
2023-04-18T03:14:36.497Z,7.78
2023-04-18T03:15:36.505Z,7.77
2023-04-18T03:16:36.489Z,7.77
2023-04-18T03:17:36.493Z,7.72
2023-04-18T03:18:36.507Z,7.75
2023-04-18T03:19:36.413Z,7.77
2023-04-18T03:20:36.420Z,7.72
2023-04-18T03:21:36.396Z,7.75
2023-04-18T03:22:36.379Z,7.72
2023-04-18T03:23:36.383Z,7.74
2023-04-18T03:24:36.378Z,7.71
2023-04-18T03:25:36.341Z,7.71
2023-04-18T03:26:36.332Z,7.74
2023-04-18T03:27:36.314Z,7.71
2023-04-18T03:28:36.307Z,7.60
2023-04-18T03:29:36.302Z,7.66
2023-04-18T03:30:36.276Z,7.69
2023-04-18T03:31:36.295Z,7.63
2023-04-18T03:32:36.360Z,7.67
2023-04-18T03:33:36.264Z,7.63
2023-04-18T03:34:36.228Z,7.60
2023-04-18T03:35:36.228Z,7.58
2023-04-18T03:36:36.189Z,7.59
2023-04-18T03:37:36.187Z,7.56
2023-04-18T03:38:36.195Z,7.58
2023-04-18T03:39:36.183Z,7.58
2023-04-18T03:40:36.147Z,7.56
2023-04-18T03:41:36.124Z,7.56
2023-04-18T03:42:36.106Z,7.55
2023-04-18T03:43:36.126Z,7.52
2023-04-18T03:44:36.094Z,7.50
2023-04-18T03:45:36.060Z,7.49
2023-04-18T03:46:36.133Z,7.49
2023-04-18T03:47:36.053Z,7.49
2023-04-18T03:48:36.082Z,7.45
2023-04-18T03:49:36.028Z,7.47
2023-04-18T03:50:35.998Z,7.45
2023-04-18T03:51:36.006Z,7.47
2023-04-18T03:52:35.997Z,7.47
2023-04-18T03:53:35.975Z,7.47
2023-04-18T03:54:35.957Z,7.44
2023-04-18T03:55:35.928Z,7.44
2023-04-18T03:56:35.950Z,7.47
2023-04-18T03:57:35.935Z,7.44
2023-04-18T03:58:35.919Z,7.44
2023-04-18T03:59:35.877Z,7.44
2023-04-18T04:00:35.872Z,7.44
2023-04-18T04:01:35.867Z,7.41
2023-04-18T04:02:35.927Z,7.37
2023-04-18T04:03:36.009Z,7.35
2023-04-18T04:04:35.836Z,7.34
2023-04-18T04:05:35.810Z,7.34
2023-04-18T04:06:35.793Z,7.31
2023-04-18T04:07:35.774Z,7.34
2023-04-18T04:08:35.807Z,7.35
2023-04-18T04:09:35.743Z,7.35
2023-04-18T04:10:35.755Z,7.34
2023-04-18T04:11:35.719Z,7.35
2023-04-18T04:12:35.712Z,7.38
2023-04-18T04:13:35.708Z,7.37
2023-04-18T04:14:35.695Z,7.35
2023-04-18T04:15:35.696Z,7.32
2023-04-18T04:16:35.843Z,7.31
2023-04-18T04:17:35.678Z,7.31
2023-04-18T04:18:35.643Z,7.29
2023-04-18T04:19:35.610Z,7.31
2023-04-18T04:20:35.606Z,7.29
2023-04-18T04:21:35.582Z,7.29
2023-04-18T04:22:35.574Z,7.29
2023-04-18T04:23:35.573Z,7.29
2023-04-18T04:24:35.556Z,7.27
2023-04-18T04:25:35.552Z,7.27
2023-04-18T04:26:35.537Z,7.29
2023-04-18T04:27:35.519Z,7.29
2023-04-18T04:28:35.514Z,7.27
2023-04-18T04:29:35.483Z,7.31
2023-04-18T04:30:35.504Z,7.26
2023-04-18T04:31:35.471Z,7.26
2023-04-18T04:32:35.455Z,7.26
2023-04-18T04:33:35.453Z,7.24
2023-04-18T04:34:35.410Z,7.24
2023-04-18T04:35:35.393Z,7.23
2023-04-18T04:36:35.415Z,7.24
2023-04-18T04:37:35.393Z,7.27
2023-04-18T04:38:35.383Z,7.24
2023-04-18T04:39:35.358Z,7.20
2023-04-18T04:40:35.338Z,7.22
2023-04-18T04:41:35.321Z,7.17
2023-04-18T04:42:35.332Z,7.16
2023-04-18T04:43:35.319Z,7.17
2023-04-18T04:44:35.305Z,7.19
2023-04-18T04:45:35.343Z,7.17
2023-04-18T04:46:35.258Z,7.15
2023-04-18T04:47:35.276Z,7.16
2023-04-18T04:48:35.262Z,7.15
2023-04-18T04:49:35.199Z,7.15
2023-04-18T04:50:35.204Z,7.20
2023-04-18T04:51:35.191Z,7.20
2023-04-18T04:52:35.227Z,7.22
2023-04-18T04:53:35.162Z,7.24
2023-04-18T04:54:35.145Z,7.20
2023-04-18T04:55:35.117Z,7.23
2023-04-18T04:56:35.119Z,7.26
2023-04-18T04:57:35.113Z,7.26
2023-04-18T04:58:35.139Z,7.31
2023-04-18T04:59:35.084Z,7.34
2023-04-18T05:00:35.064Z,7.35
2023-04-18T05:01:35.072Z,7.41
2023-04-18T05:02:35.119Z,7.45
2023-04-18T05:03:35.488Z,7.49
2023-04-18T05:04:35.096Z,7.55
2023-04-18T05:05:34.986Z,7.56
2023-04-18T05:06:34.969Z,7.60
2023-04-18T05:07:35.015Z,7.62
2023-04-18T05:08:35.006Z,7.60
2023-04-18T05:09:34.962Z,7.62
2023-04-18T05:10:34.930Z,7.62
2023-04-18T05:11:34.913Z,7.63
2023-04-18T05:12:34.932Z,7.71
2023-04-18T05:13:34.899Z,7.77
2023-04-18T05:14:34.886Z,7.77
2023-04-18T05:15:34.854Z,7.81
2023-04-18T05:16:34.873Z,7.85
2023-04-18T05:17:34.863Z,7.89
2023-04-18T05:18:35.100Z,7.87
2023-04-18T05:19:34.822Z,7.87
2023-04-18T05:20:34.864Z,7.92
2023-04-18T05:21:34.788Z,7.92
2023-04-18T05:22:34.787Z,7.94
2023-04-18T05:23:34.763Z,7.94
2023-04-18T05:24:34.744Z,7.99
2023-04-18T05:25:34.715Z,8.00
2023-04-18T05:26:34.766Z,7.99
2023-04-18T05:27:34.741Z,8.02
2023-04-18T05:28:35.365Z,8.07
2023-04-18T05:29:34.680Z,8.07
2023-04-18T05:30:34.679Z,8.07
2023-04-18T05:31:34.708Z,8.04
2023-04-18T05:32:34.677Z,8.11
2023-04-18T05:33:34.667Z,8.12
2023-04-18T05:34:35.733Z,8.12
2023-04-18T05:35:34.633Z,8.15
2023-04-18T05:36:34.618Z,8.15
2023-04-18T05:37:34.589Z,8.17
2023-04-18T05:38:34.602Z,8.18
2023-04-18T05:39:34.580Z,8.22
2023-04-18T05:40:34.530Z,8.26
2023-04-18T05:41:34.544Z,8.30
2023-04-18T05:42:34.529Z,8.33
2023-04-18T05:43:34.489Z,8.39
2023-04-18T05:44:34.467Z,8.37
2023-04-18T05:45:34.465Z,8.42
2023-04-18T05:46:34.511Z,8.47
2023-04-18T05:47:34.454Z,8.47
2023-04-18T05:48:34.430Z,8.47
2023-04-18T05:49:34.425Z,8.47
2023-04-18T05:50:34.400Z,8.47
2023-04-18T05:51:34.371Z,8.45
2023-04-18T05:52:34.388Z,8.47
2023-04-18T05:53:34.384Z,8.48
2023-04-18T05:54:34.346Z,8.48
2023-04-18T05:55:34.350Z,8.55
2023-04-18T05:56:34.316Z,8.63
2023-04-18T05:57:34.293Z,8.65
2023-04-18T05:58:34.340Z,8.73
2023-04-18T05:59:34.270Z,8.79
2023-04-18T06:00:34.312Z,8.78
2023-04-18T06:01:34.281Z,8.81
2023-04-18T06:02:34.338Z,8.79
2023-04-18T06:03:34.346Z,8.81
2023-04-18T06:04:34.336Z,8.84
2023-04-18T06:05:34.260Z,8.84
2023-04-18T06:06:34.162Z,8.81
2023-04-18T06:07:34.152Z,8.87
2023-04-18T06:08:34.216Z,8.88
2023-04-18T06:09:34.118Z,8.87
2023-04-18T06:10:34.134Z,8.90
2023-04-18T06:11:34.116Z,8.91
2023-04-18T06:12:34.125Z,8.96
2023-04-18T06:13:34.105Z,8.97
2023-04-18T06:14:34.074Z,8.99
2023-04-18T06:15:34.051Z,9.02
2023-04-18T06:16:34.101Z,9.04
2023-04-18T06:17:34.071Z,9.06
2023-04-18T06:18:34.054Z,9.06
2023-04-18T06:19:33.998Z,9.05
2023-04-18T06:20:33.968Z,9.12
2023-04-18T06:21:33.969Z,9.15
2023-04-18T06:22:34.029Z,9.18
2023-04-18T06:23:33.946Z,9.21
2023-04-18T06:24:33.924Z,9.20
2023-04-18T06:25:33.918Z,9.27
2023-04-18T06:26:33.899Z,9.27
2023-04-18T06:27:33.947Z,9.27
2023-04-18T06:28:33.871Z,9.21
2023-04-18T06:29:34.666Z,9.20
2023-04-18T06:30:33.855Z,9.21
2023-04-18T06:31:33.917Z,9.21
2023-04-18T06:32:33.903Z,9.18
2023-04-18T06:33:33.814Z,9.20
2023-04-18T06:34:33.796Z,9.23
2023-04-18T06:35:33.787Z,9.25
2023-04-18T06:36:33.783Z,9.21
2023-04-18T06:37:33.761Z,9.27
2023-04-18T06:38:33.750Z,9.25
2023-04-18T06:39:33.728Z,9.27
2023-04-18T06:40:33.711Z,9.25
2023-04-18T06:41:33.710Z,9.23
2023-04-18T06:42:33.715Z,9.23
2023-04-18T06:43:33.674Z,9.18
2023-04-18T06:44:33.670Z,9.20
2023-04-18T06:45:33.693Z,9.20
2023-04-18T06:46:33.630Z,9.20
2023-04-18T06:47:33.726Z,9.23
2023-04-18T06:48:33.600Z,9.21
2023-04-18T06:49:33.585Z,9.25
2023-04-18T06:50:33.563Z,9.27
2023-04-18T06:51:33.562Z,9.34
2023-04-18T06:52:33.585Z,9.34
2023-04-18T06:53:33.546Z,9.39
2023-04-18T06:54:33.525Z,9.42
2023-04-18T06:55:33.523Z,9.52
2023-04-18T06:56:34.980Z,9.58
2023-04-18T06:57:33.519Z,9.63
2023-04-18T06:58:33.475Z,9.67
2023-04-18T06:59:33.457Z,9.70
2023-04-18T07:00:33.459Z,9.78
2023-04-18T07:01:33.618Z,9.78
2023-04-18T07:02:33.503Z,9.83
2023-04-18T07:03:33.449Z,9.85
2023-04-18T07:04:33.395Z,9.88
2023-04-18T07:05:33.397Z,9.88
2023-04-18T07:06:33.358Z,9.91
2023-04-18T07:07:33.363Z,9.91
2023-04-18T07:08:33.322Z,9.89
2023-04-18T07:09:33.332Z,9.89
2023-04-18T07:10:33.293Z,9.94
2023-04-18T07:11:33.291Z,9.96
2023-04-18T07:12:33.423Z,9.97
2023-04-18T07:13:33.272Z,10.01
2023-04-18T07:14:34.273Z,10.01
2023-04-18T07:15:33.246Z,10.04
2023-04-18T07:16:33.248Z,10.04
2023-04-18T07:17:33.308Z,10.01
2023-04-18T07:18:38.128Z,10.03
2023-04-18T07:19:34.185Z,10.04
2023-04-18T07:20:33.163Z,10.07
2023-04-18T07:21:33.184Z,10.06
2023-04-18T07:22:33.158Z,10.07
2023-04-18T07:23:33.149Z,10.10
2023-04-18T07:24:33.123Z,10.06
2023-04-18T07:25:33.132Z,10.07
2023-04-18T07:26:33.092Z,10.14
2023-04-18T07:27:33.130Z,10.14
2023-04-18T07:28:33.060Z,10.09
2023-04-18T07:29:33.046Z,10.04
2023-04-18T07:30:33.034Z,9.99
2023-04-18T07:31:33.070Z,9.97
2023-04-18T07:32:33.090Z,9.94
2023-04-18T07:33:33.000Z,9.99
2023-04-18T07:34:32.992Z,9.99
2023-04-18T07:35:32.970Z,10.03
2023-04-18T07:36:32.944Z,10.00
2023-04-18T07:37:32.968Z,9.96
2023-04-18T07:38:32.937Z,9.86
2023-04-18T07:39:32.927Z,9.82
2023-04-18T07:40:32.907Z,9.81
2023-04-18T07:41:32.891Z,9.79
2023-04-18T07:42:32.890Z,9.82
2023-04-18T07:43:32.873Z,9.79
2023-04-18T07:44:32.868Z,9.79
2023-04-18T07:45:32.837Z,9.82
2023-04-18T07:46:32.845Z,9.76
2023-04-18T07:47:33.713Z,9.73
2023-04-18T07:48:32.802Z,9.71
2023-04-18T07:49:32.782Z,9.78
2023-04-18T07:50:32.762Z,9.83
2023-04-18T07:51:32.781Z,9.83
2023-04-18T07:52:32.753Z,9.86
2023-04-18T07:53:32.724Z,9.91
2023-04-18T07:54:32.709Z,9.97
2023-04-18T07:55:32.704Z,10.06
2023-04-18T07:56:32.689Z,10.17
2023-04-18T07:57:32.701Z,10.21
2023-04-18T07:58:32.653Z,10.21
2023-04-18T07:59:32.648Z,10.24
2023-04-18T08:00:32.647Z,10.19
2023-04-18T08:01:32.626Z,10.19
2023-04-18T08:02:32.736Z,10.25
2023-04-18T08:03:32.751Z,10.26
2023-04-18T08:04:32.769Z,10.24
2023-04-18T08:05:32.626Z,10.15
2023-04-18T08:06:32.551Z,10.18
2023-04-18T08:07:32.550Z,10.21
2023-04-18T08:08:32.525Z,10.21
2023-04-18T08:09:32.514Z,10.19
2023-04-18T08:10:32.500Z,10.18
2023-04-18T08:11:32.477Z,10.18
2023-04-18T08:12:32.480Z,10.15
2023-04-18T08:13:32.452Z,10.15
2023-04-18T08:14:32.438Z,10.15
2023-04-18T08:15:32.714Z,10.24
2023-04-18T08:16:32.533Z,10.24
2023-04-18T08:17:32.422Z,10.22
2023-04-18T08:18:32.378Z,10.24
2023-04-18T08:19:32.369Z,10.24
2023-04-18T08:20:32.401Z,10.21
2023-04-18T08:21:32.402Z,10.19
2023-04-18T08:22:32.324Z,10.21
2023-04-18T08:23:32.341Z,10.22
2023-04-18T08:24:32.298Z,10.28
2023-04-18T08:25:32.298Z,10.40
2023-04-18T08:26:32.293Z,10.40
2023-04-18T08:27:32.285Z,10.40
2023-04-18T08:28:32.250Z,10.46
2023-04-18T08:29:32.239Z,10.47
2023-04-18T08:30:32.245Z,10.46
2023-04-18T08:31:32.260Z,10.47
2023-04-18T08:32:32.231Z,10.51
2023-04-18T08:33:32.208Z,10.53
2023-04-18T08:34:32.166Z,10.53
2023-04-18T08:35:32.161Z,10.55
2023-04-18T08:36:32.143Z,10.52
2023-04-18T08:37:32.156Z,10.56
2023-04-18T08:38:32.133Z,10.58
2023-04-18T08:39:32.102Z,10.47
2023-04-18T08:40:32.085Z,10.51
2023-04-18T08:41:32.069Z,10.55
2023-04-18T08:42:32.105Z,10.59
2023-04-18T08:43:32.063Z,10.56
2023-04-18T08:44:32.021Z,10.59
2023-04-18T08:45:32.041Z,10.60
2023-04-18T08:46:32.007Z,10.60
2023-04-18T08:47:32.021Z,10.65
2023-04-18T08:48:31.979Z,10.63
2023-04-18T08:49:31.970Z,10.63
2023-04-18T08:50:31.989Z,10.58
2023-04-18T08:51:31.962Z,10.62
2023-04-18T08:52:31.919Z,10.63
2023-04-18T08:53:31.896Z,10.59
2023-04-18T08:54:31.904Z,10.56
2023-04-18T08:55:31.868Z,10.60
2023-04-18T08:56:31.877Z,10.60
2023-04-18T08:57:31.851Z,10.68
2023-04-18T08:58:31.891Z,10.65
2023-04-18T08:59:31.829Z,10.65
2023-04-18T09:00:31.806Z,10.68
2023-04-18T09:01:31.822Z,10.71
2023-04-18T09:02:31.820Z,10.70
2023-04-18T09:03:31.830Z,10.74
2023-04-18T09:04:31.869Z,10.71
2023-04-18T09:05:31.746Z,10.70
2023-04-18T09:06:31.737Z,10.62
2023-04-18T09:07:31.707Z,10.63
2023-04-18T09:08:31.690Z,10.63
2023-04-18T09:09:31.681Z,10.60
2023-04-18T09:10:31.671Z,10.59
2023-04-18T09:11:31.741Z,10.58
2023-04-18T09:12:31.637Z,10.56
2023-04-18T09:13:31.629Z,10.55
2023-04-18T09:14:31.623Z,10.60
2023-04-18T09:15:31.652Z,10.70
2023-04-18T09:16:31.620Z,10.77
2023-04-18T09:17:31.639Z,10.80
2023-04-18T09:18:31.583Z,10.78
2023-04-18T09:19:31.563Z,10.74
2023-04-18T09:20:31.534Z,10.77
2023-04-18T09:21:31.525Z,10.91
2023-04-18T09:22:31.489Z,10.94
2023-04-18T09:23:31.509Z,11.02
2023-04-18T09:24:31.478Z,11.11
2023-04-18T09:25:31.465Z,11.16
2023-04-18T09:26:31.472Z,11.24
2023-04-18T09:27:31.446Z,11.27
2023-04-18T09:28:31.421Z,11.27
2023-04-18T09:29:31.419Z,11.16
2023-04-18T09:30:31.395Z,11.10
2023-04-18T09:31:31.461Z,11.09
2023-04-18T09:32:31.414Z,11.07
2023-04-18T09:33:31.399Z,11.11
2023-04-18T09:34:31.349Z,11.10
2023-04-18T09:35:31.345Z,11.16
2023-04-18T09:36:31.484Z,11.20
2023-04-18T09:37:31.332Z,11.27
2023-04-18T09:38:31.289Z,11.31
2023-04-18T09:39:31.282Z,11.34
2023-04-18T09:40:31.280Z,11.38
2023-04-18T09:41:31.247Z,11.36
2023-04-18T09:42:31.264Z,11.35
2023-04-18T09:43:31.225Z,11.34
2023-04-18T09:44:31.207Z,11.24
2023-04-18T09:45:31.206Z,11.27
2023-04-18T09:46:31.321Z,11.29
2023-04-18T09:47:31.217Z,11.29
2023-04-18T09:48:31.164Z,11.31
2023-04-18T09:49:31.147Z,11.31
2023-04-18T09:50:31.133Z,11.34
2023-04-18T09:51:31.121Z,11.44
2023-04-18T09:52:31.142Z,11.49
2023-04-18T09:53:31.095Z,11.56
2023-04-18T09:54:31.084Z,11.62
2023-04-18T09:55:31.062Z,11.65
2023-04-18T09:56:31.155Z,11.62
2023-04-18T09:57:31.038Z,11.71
2023-04-18T09:58:31.019Z,11.86
2023-04-18T09:59:31.016Z,11.99
2023-04-18T10:00:30.990Z,12.15
2023-04-18T10:01:31.053Z,12.15
2023-04-18T10:02:31.049Z,12.20
2023-04-18T10:03:31.010Z,12.20
2023-04-18T10:04:31.085Z,12.15
2023-04-18T10:05:31.008Z,12.23
2023-04-18T10:06:30.921Z,12.42
2023-04-18T10:07:30.895Z,12.64
2023-04-18T10:08:30.878Z,12.70
2023-04-18T10:09:30.869Z,12.78
2023-04-18T10:10:30.877Z,12.81
2023-04-18T10:11:30.889Z,12.77
2023-04-18T10:12:30.829Z,12.71
2023-04-18T10:13:30.821Z,12.70
2023-04-18T10:14:30.786Z,12.62
2023-04-18T10:15:30.801Z,12.64
2023-04-18T10:16:30.861Z,12.34
2023-04-18T10:17:30.795Z,12.34
2023-04-18T10:18:30.792Z,12.39
2023-04-18T10:19:30.750Z,12.38
2023-04-18T10:20:30.704Z,12.45
2023-04-18T10:21:30.699Z,12.45
2023-04-18T10:22:30.713Z,12.59
2023-04-18T10:23:30.681Z,12.82
2023-04-18T10:24:30.663Z,13.03
2023-04-18T10:25:30.696Z,13.38
2023-04-18T10:26:30.701Z,13.44
2023-04-18T10:27:30.641Z,13.17
2023-04-18T10:28:30.611Z,13.07
2023-04-18T10:29:30.601Z,12.95
2023-04-18T10:30:30.598Z,12.87
2023-04-18T10:31:30.612Z,12.85
2023-04-18T10:32:30.562Z,12.84
2023-04-18T10:33:32.177Z,12.84
2023-04-18T10:34:30.527Z,13.58
2023-04-18T10:35:30.512Z,13.77
2023-04-18T10:36:30.543Z,13.63
2023-04-18T10:37:30.491Z,13.56
2023-04-18T10:38:30.479Z,13.47
2023-04-18T10:39:30.470Z,13.30
2023-04-18T10:40:30.480Z,13.20
2023-04-18T10:41:30.441Z,13.29
2023-04-18T10:42:30.431Z,13.25
2023-04-18T10:43:30.425Z,13.15
2023-04-18T10:44:30.395Z,13.41
2023-04-18T10:45:30.373Z,13.29
2023-04-18T10:46:32.749Z,13.09
2023-04-18T10:47:30.444Z,13.11
2023-04-18T10:48:30.390Z,13.11
2023-04-18T10:49:32.586Z,13.18
2023-04-18T10:50:30.308Z,13.18
2023-04-18T10:51:30.330Z,13.37
2023-04-18T10:52:30.294Z,13.79
2023-04-18T10:53:30.282Z,14.31
2023-04-18T10:54:30.264Z,13.94
2023-04-18T10:55:30.240Z,13.73
2023-04-18T10:56:30.252Z,13.63
2023-04-18T10:57:30.210Z,13.73
2023-04-18T10:58:30.210Z,13.70
2023-04-18T10:59:30.189Z,13.59
2023-04-18T11:00:30.184Z,13.65
2023-04-18T11:01:32.507Z,13.69
2023-04-18T11:02:30.481Z,13.56
2023-04-18T11:03:30.245Z,13.58
2023-04-18T11:04:30.233Z,13.55
2023-04-18T11:05:30.108Z,13.51
2023-04-18T11:06:30.119Z,13.41
2023-04-18T11:07:30.129Z,13.43
2023-04-18T11:08:30.082Z,13.21
2023-04-18T11:09:30.054Z,13.15
2023-04-18T11:10:30.049Z,13.02
2023-04-18T11:11:30.102Z,12.96
2023-04-18T11:12:30.013Z,12.96
2023-04-18T11:13:30.001Z,13.00
2023-04-18T11:14:29.982Z,13.07
2023-04-18T11:15:31.096Z,13.15
2023-04-18T11:16:30.024Z,13.27
2023-04-18T11:17:29.975Z,13.41
2023-04-18T11:18:29.937Z,13.54
2023-04-18T11:19:29.921Z,13.46
2023-04-18T11:20:29.976Z,13.65
2023-04-18T11:21:30.801Z,13.73
2023-04-18T11:22:29.890Z,13.76
2023-04-18T11:23:29.858Z,13.80
2023-04-18T11:24:29.851Z,13.94
2023-04-18T11:25:29.886Z,14.42
2023-04-18T11:26:29.835Z,14.83
2023-04-18T11:27:29.835Z,15.06
2023-04-18T11:28:29.807Z,15.39
2023-04-18T11:29:29.774Z,15.43
2023-04-18T11:30:29.832Z,15.24
2023-04-18T11:31:29.785Z,15.15
2023-04-18T11:32:29.906Z,14.81
2023-04-18T11:33:29.747Z,14.65
2023-04-18T11:34:29.711Z,14.62
2023-04-18T11:35:29.717Z,14.67
2023-04-18T11:36:29.696Z,14.68
2023-04-18T11:37:29.682Z,14.72
2023-04-18T11:38:29.663Z,14.88
2023-04-18T11:39:29.654Z,15.86
2023-04-18T11:40:29.699Z,16.60
2023-04-18T11:41:29.616Z,16.99
2023-04-18T11:42:29.618Z,17.10
2023-04-18T11:43:29.611Z,17.11
2023-04-18T11:44:29.586Z,16.99
2023-04-18T11:45:29.599Z,17.26
2023-04-18T11:46:29.633Z,16.92
2023-04-18T11:47:29.576Z,17.18
2023-04-18T11:48:29.531Z,17.66
2023-04-18T11:49:29.509Z,18.17
2023-04-18T11:50:29.508Z,18.49
2023-04-18T11:51:29.523Z,18.79
2023-04-18T11:52:29.474Z,19.08
2023-04-18T11:53:29.452Z,19.53
2023-04-18T11:54:29.445Z,19.80
2023-04-18T11:55:29.452Z,19.93
2023-04-18T11:56:29.410Z,19.87
2023-04-18T11:57:29.402Z,19.65
2023-04-18T11:58:29.387Z,19.69
2023-04-18T11:59:29.364Z,19.28
2023-04-18T12:00:29.389Z,19.35
2023-04-18T12:01:29.348Z,18.99
2023-04-18T12:02:29.466Z,18.55
2023-04-18T12:03:29.746Z,18.68
2023-04-18T12:04:29.569Z,18.74
2023-04-18T12:05:29.426Z,18.61
2023-04-18T12:06:29.404Z,18.65
2023-04-18T12:07:29.266Z,18.64
2023-04-18T12:08:29.250Z,18.99
2023-04-18T12:09:29.237Z,19.38
2023-04-18T12:10:29.265Z,19.65
2023-04-18T12:11:29.213Z,20.09
2023-04-18T12:12:29.199Z,20.53
2023-04-18T12:13:29.305Z,20.56
2023-04-18T12:14:29.166Z,20.56
2023-04-18T12:15:29.182Z,20.76
2023-04-18T12:16:29.264Z,21.19
2023-04-18T12:17:29.249Z,21.27
2023-04-18T12:18:29.123Z,21.42
2023-04-18T12:19:29.160Z,21.54
2023-04-18T12:20:29.210Z,21.44
2023-04-18T12:21:29.172Z,20.74
2023-04-18T12:22:29.157Z,20.39
2023-04-18T12:23:29.091Z,20.18
2023-04-18T12:24:29.143Z,20.33
2023-04-18T12:25:29.063Z,20.66
2023-04-18T12:26:29.137Z,20.95
2023-04-18T12:27:29.005Z,20.98
2023-04-18T12:28:28.987Z,20.80
2023-04-18T12:29:28.963Z,20.59
2023-04-18T12:30:28.986Z,20.49
2023-04-18T12:31:28.989Z,20.65
2023-04-18T12:32:28.958Z,20.68
2023-04-18T12:33:28.927Z,20.33
2023-04-18T12:34:28.928Z,19.46
2023-04-18T12:35:28.947Z,18.67
2023-04-18T12:36:28.877Z,17.78
2023-04-18T12:37:28.865Z,17.14
2023-04-18T12:38:28.852Z,16.65
2023-04-18T12:39:28.840Z,16.25
2023-04-18T12:40:28.848Z,15.82
2023-04-18T12:41:28.807Z,15.45
2023-04-18T12:42:28.794Z,15.20
2023-04-18T12:43:28.780Z,15.11
2023-04-18T12:44:28.770Z,14.99
2023-04-18T12:45:28.777Z,14.84
2023-04-18T12:46:28.796Z,14.72
2023-04-18T12:47:28.751Z,14.88
2023-04-18T12:48:28.745Z,14.99
2023-04-18T12:49:28.699Z,14.86
2023-04-18T12:50:28.734Z,14.72
2023-04-18T12:51:28.682Z,14.71
2023-04-18T12:52:28.683Z,14.65
2023-04-18T12:53:28.651Z,14.47
2023-04-18T12:54:28.653Z,14.44
2023-04-18T12:55:28.626Z,14.49
2023-04-18T12:56:28.617Z,14.39
2023-04-18T12:57:30.537Z,14.35
2023-04-18T12:58:28.588Z,14.35
2023-04-18T12:59:28.568Z,14.31
2023-04-18T13:00:28.591Z,14.19
2023-04-18T13:01:28.625Z,14.16
2023-04-18T13:02:28.665Z,14.17
2023-04-18T13:03:28.786Z,14.21
2023-04-18T13:04:28.791Z,14.13
2023-04-18T13:05:31.750Z,14.17
2023-04-18T13:06:28.478Z,14.27
2023-04-18T13:07:28.450Z,14.53